Time;durP1;ratioP1;P1;durP2;ratioP2;P2;SDS_P1;SDS_P2;PMS_P1;PMS_P2;Temp;Humidity;BMP_temperature;BMP_pressure;BME280_temperature;BME280_humidity;BME280_pressure;Samples;Min_cycle;Max_cycle;Signal;HPM_P1;HPM_P2
2022/06/26 00:00:26;;;;;;;17.08;15.57;;;20.60;99.90;;;;;;5044341;28;20033;-46
2022/06/26 00:02:51;;;;;;;21.15;19.25;;;20.60;99.90;;;;;;5038663;28;20056;-45
2022/06/26 00:05:17;;;;;;;16.75;15.25;;;20.60;99.90;;;;;;5020830;28;20236;-47
2022/06/26 00:07:43;;;;;;;17.38;15.93;;;20.60;99.90;;;;;;5029184;28;20129;-46
2022/06/26 00:10:10;;;;;;;17.50;15.90;;;20.60;99.90;;;;;;5037634;28;20040;-47
2022/06/26 00:12:36;;;;;;;17.65;16.05;;;20.60;99.90;;;;;;5049888;28;20489;-46
2022/06/26 00:15:02;;;;;;;19.85;18.05;;;20.50;99.90;;;;;;5033931;28;20072;-48
2022/06/26 00:17:27;;;;;;;23.15;20.85;;;20.60;99.90;;;;;;5048791;28;20041;-46
2022/06/26 00:19:53;;;;;;;24.77;22.38;;;20.50;99.90;;;;;;5050525;28;20125;-46
2022/06/26 00:22:19;;;;;;;23.30;21.10;;;20.50;99.90;;;;;;5035855;28;20052;-46
2022/06/26 00:24:45;;;;;;;23.25;21.02;;;20.50;99.90;;;;;;5017023;28;20068;-45
2022/06/26 00:27:11;;;;;;;22.88;20.77;;;20.50;99.90;;;;;;5024264;28;20092;-47
2022/06/26 00:29:37;;;;;;;25.23;23.02;;;20.50;99.90;;;;;;5008701;28;20507;-46
2022/06/26 00:32:05;;;;;;;28.20;25.55;;;20.50;99.90;;;;;;5032147;28;20048;-46
2022/06/26 00:34:32;;;;;;;28.23;25.63;;;20.50;99.90;;;;;;5025788;28;20491;-47
2022/06/26 00:36:58;;;;;;;27.50;25.05;;;20.50;99.90;;;;;;5016741;28;20132;-46
2022/06/26 00:39:24;;;;;;;31.95;28.92;;;20.50;99.90;;;;;;4986013;28;20452;-45
2022/06/26 00:41:53;;;;;;;26.95;24.63;;;20.40;99.90;;;;;;5011243;28;20053;-45
2022/06/26 00:44:21;;;;;;;27.08;24.58;;;20.50;99.90;;;;;;5034271;28;20048;-47
2022/06/26 00:46:47;;;;;;;26.42;23.73;;;20.40;99.90;;;;;;5020928;28;20033;-47
2022/06/26 00:49:13;;;;;;;29.25;26.50;;;20.50;99.90;;;;;;5019426;28;20119;-45
2022/06/26 00:51:43;;;;;;;26.90;24.40;;;20.50;99.90;;;;;;5021583;28;20068;-47
2022/06/26 00:54:09;;;;;;;30.48;27.55;;;20.40;99.90;;;;;;5030054;28;20037;-45
2022/06/26 00:56:36;;;;;;;26.10;23.63;;;20.40;99.90;;;;;;4992180;28;20037;-47
2022/06/26 00:59:03;;;;;;;23.95;21.60;;;20.40;99.90;;;;;;5023124;28;20036;-48
2022/06/26 01:01:29;;;;;;;24.35;22.17;;;20.40;99.90;;;;;;5022377;28;20053;-47
2022/06/26 01:03:55;;;;;;;26.88;24.35;;;20.40;99.90;;;;;;5026930;28;20033;-46
2022/06/26 01:06:21;;;;;;;22.67;20.60;;;20.40;99.90;;;;;;5018688;28;20045;-47
2022/06/26 01:08:48;;;;;;;23.50;21.20;;;20.40;99.90;;;;;;5024231;28;20046;-45
2022/06/26 01:11:20;;;;;;;20.27;18.40;;;20.40;99.90;;;;;;5017971;28;20116;-46
2022/06/26 01:13:52;;;;;;;23.80;21.55;;;20.40;99.90;;;;;;5017302;28;20555;-45
2022/06/26 01:16:19;;;;;;;24.00;21.67;;;20.30;99.90;;;;;;5019443;28;20034;-47
2022/06/26 01:18:48;;;;;;;22.77;20.58;;;20.30;99.90;;;;;;5025193;28;20072;-45
2022/06/26 01:21:19;;;;;;;18.77;16.80;;;20.30;99.90;;;;;;5027804;28;20752;-46
2022/06/26 01:23:46;;;;;;;16.65;15.23;;;20.30;99.90;;;;;;5025932;28;20042;-46
2022/06/26 01:26:12;;;;;;;21.13;19.15;;;20.30;99.90;;;;;;5023370;28;20116;-46
2022/06/26 01:28:37;;;;;;;19.45;17.60;;;20.30;99.90;;;;;;5024238;28;20036;-46
2022/06/26 01:31:03;;;;;;;16.80;15.20;;;20.30;99.90;;;;;;5021919;28;20037;-46
2022/06/26 01:33:29;;;;;;;20.27;18.48;;;20.20;99.90;;;;;;5022469;28;20037;-46
2022/06/26 01:35:55;;;;;;;18.00;16.40;;;20.20;99.90;;;;;;5021801;28;20038;-45
2022/06/26 01:38:22;;;;;;;18.45;16.85;;;20.20;99.90;;;;;;5024616;28;20045;-46
2022/06/26 01:40:51;;;;;;;18.75;16.95;;;20.20;99.90;;;;;;5025188;28;20034;-46
2022/06/26 01:43:20;;;;;;;18.55;16.88;;;20.10;99.90;;;;;;5015032;28;20064;-46
2022/06/26 01:45:49;;;;;;;16.98;15.48;;;20.10;99.90;;;;;;5021192;28;20041;-46
2022/06/26 01:48:16;;;;;;;19.05;17.35;;;20.10;99.90;;;;;;5010613;28;20057;-46
2022/06/26 01:50:42;;;;;;;20.67;18.80;;;20.10;99.90;;;;;;5018642;28;20410;-46
2022/06/26 01:53:08;;;;;;;16.73;15.07;;;20.10;99.90;;;;;;5028783;28;20048;-46
2022/06/26 01:55:35;;;;;;;15.93;14.52;;;20.10;99.90;;;;;;5040396;28;20067;-44
2022/06/26 01:58:03;;;;;;;16.58;15.07;;;20.10;99.90;;;;;;5027925;28;20480;-51
2022/06/26 02:00:30;;;;;;;15.10;13.73;;;20.10;99.90;;;;;;5022836;28;20041;-45
2022/06/26 02:02:56;;;;;;;18.05;16.33;;;20.10;99.90;;;;;;5018769;28;20045;-46
2022/06/26 02:05:22;;;;;;;17.92;16.20;;;20.10;99.90;;;;;;5024582;28;20084;-48
2022/06/26 02:07:48;;;;;;;18.77;17.02;;;20.10;99.90;;;;;;5019709;28;20042;-47
2022/06/26 02:15:43;;;;;;;17.88;16.25;;;20.00;99.90;;;;;;5001880;28;20412;-49
2022/06/26 02:18:09;;;;;;;18.05;16.45;;;20.00;99.90;;;;;;5018191;28;20037;-50
2022/06/26 02:20:35;;;;;;;16.85;15.25;;;19.90;99.90;;;;;;5017178;28;20037;-45
2022/06/26 02:23:00;;;;;;;16.35;14.93;;;20.00;99.90;;;;;;5021671;28;20120;-48
2022/06/26 02:25:26;;;;;;;14.48;13.18;;;19.90;99.90;;;;;;5024389;28;20033;-46
2022/06/26 02:27:52;;;;;;;14.40;13.00;;;20.00;99.90;;;;;;5024429;28;20440;-46
2022/06/26 02:30:18;;;;;;;14.52;13.23;;;20.00;99.90;;;;;;5021166;28;20048;-45
2022/06/26 02:32:43;;;;;;;13.13;11.82;;;19.90;99.90;;;;;;5017746;28;20085;-46
2022/06/26 02:35:10;;;;;;;11.65;10.68;;;19.90;99.90;;;;;;5019865;28;20041;-48
2022/06/26 02:37:36;;;;;;;11.80;10.75;;;19.90;99.90;;;;;;5017500;28;20427;-45
2022/06/26 02:40:03;;;;;;;13.13;11.73;;;19.90;99.90;;;;;;4996352;28;20088;-45
2022/06/26 02:42:29;;;;;;;11.63;10.52;;;19.90;99.90;;;;;;5012238;28;20041;-46
2022/06/26 02:44:55;;;;;;;10.20;9.18;;;19.90;99.90;;;;;;5009392;28;20049;-46
2022/06/26 02:47:20;;;;;;;10.00;9.00;;;19.80;99.90;;;;;;5027062;28;20143;-46
2022/06/26 02:49:46;;;;;;;9.13;8.23;;;19.80;99.90;;;;;;5017636;28;20462;-45
2022/06/26 02:52:12;;;;;;;8.32;7.43;;;19.80;99.90;;;;;;5028052;28;20483;-45
2022/06/26 02:54:38;;;;;;;8.25;7.45;;;19.80;99.90;;;;;;5016939;28;20045;-45
2022/06/26 02:57:04;;;;;;;9.15;8.18;;;19.80;99.90;;;;;;4986269;28;20560;-45
2022/06/26 02:59:29;;;;;;;8.75;7.43;;;19.80;99.90;;;;;;5020646;28;20076;-47
2022/06/26 03:01:57;;;;;;;9.95;7.82;;;19.70;99.90;;;;;;5019729;28;20076;-45
2022/06/26 03:04:23;;;;;;;9.60;8.65;;;19.70;99.90;;;;;;5020760;28;20045;-46
2022/06/26 03:06:49;;;;;;;8.43;7.30;;;19.70;99.90;;;;;;5016774;28;20246;-44
2022/06/26 03:09:14;;;;;;;7.57;6.90;;;19.70;99.90;;;;;;5019379;28;20166;-47
2022/06/26 03:11:41;;;;;;;7.65;6.82;;;19.70;99.90;;;;;;5023404;28;20041;-46
2022/06/26 03:14:07;;;;;;;7.22;6.55;;;19.70;99.90;;;;;;5007772;28;20107;-46
2022/06/26 03:16:33;;;;;;;6.60;5.90;;;19.70;99.90;;;;;;5016242;28;20046;-46
2022/06/26 03:18:59;;;;;;;8.25;5.88;;;19.70;99.90;;;;;;5018273;28;20099;-48
2022/06/26 03:21:25;;;;;;;7.72;6.18;;;19.70;99.90;;;;;;5028149;28;20513;-46
2022/06/26 03:24:03;;;;;;;6.22;5.63;;;19.70;99.90;;;;;;5026093;28;20060;-46
2022/06/26 03:26:34;;;;;;;6.72;5.28;;;19.70;99.90;;;;;;5023353;28;20046;-46
2022/06/26 03:29:00;;;;;;;6.43;5.10;;;19.70;99.90;;;;;;5021417;28;20057;-45
2022/06/26 03:31:27;;;;;;;6.25;4.80;;;19.60;99.90;;;;;;5018148;28;20052;-50
2022/06/26 03:33:53;;;;;;;5.07;4.40;;;19.60;99.90;;;;;;5006432;28;20049;-46
2022/06/26 03:36:19;;;;;;;5.32;4.10;;;19.60;99.90;;;;;;5025379;28;20403;-45
2022/06/26 03:38:45;;;;;;;4.55;3.70;;;19.60;99.90;;;;;;5016354;28;20037;-48
2022/06/26 03:41:12;;;;;;;6.47;3.35;;;19.60;99.90;;;;;;5021088;28;20049;-47
2022/06/26 03:43:37;;;;;;;4.70;3.47;;;19.60;99.90;;;;;;5020914;28;20033;-44
2022/06/26 03:46:03;;;;;;;4.40;2.65;;;19.60;99.90;;;;;;5026024;28;20526;-45
2022/06/26 03:48:30;;;;;;;4.25;2.30;;;19.50;99.90;;;;;;5020322;28;20452;-47
2022/06/26 03:50:56;;;;;;;4.75;2.30;;;19.50;99.90;;;;;;5023163;28;20412;-45
2022/06/26 03:53:22;;;;;;;3.33;1.88;;;19.50;99.90;;;;;;5014728;28;20073;-45
2022/06/26 03:55:48;;;;;;;2.83;1.58;;;19.50;99.90;;;;;;5020665;28;20496;-45
2022/06/26 03:58:13;;;;;;;3.13;1.33;;;19.50;99.90;;;;;;5023149;28;20071;-46
2022/06/26 04:00:39;;;;;;;2.95;1.70;;;19.50;99.90;;;;;;5022653;28;20029;-46
2022/06/26 04:03:06;;;;;;;3.15;1.35;;;19.50;99.90;;;;;;5010952;28;20085;-45
2022/06/26 04:05:37;;;;;;;3.47;1.30;;;19.50;99.90;;;;;;5021808;28;20081;-46
2022/06/26 04:08:03;;;;;;;1.75;1.00;;;19.50;99.90;;;;;;5022774;28;20043;-45
2022/06/26 04:10:29;;;;;;;2.28;1.02;;;19.50;99.90;;;;;;5019619;28;20472;-47
2022/06/26 04:12:59;;;;;;;2.50;1.00;;;19.50;99.90;;;;;;5025517;28;20039;-49
2022/06/26 04:15:26;;;;;;;2.25;0.90;;;19.50;99.90;;;;;;5034694;28;20064;-47
2022/06/26 04:17:52;;;;;;;3.30;1.20;;;19.40;99.90;;;;;;5024719;28;20037;-48
2022/06/26 04:20:17;;;;;;;3.03;1.00;;;19.40;99.90;;;;;;5009323;28;20490;-46
2022/06/26 04:22:43;;;;;;;1.85;0.77;;;19.40;99.90;;;;;;5020964;28;20121;-46
2022/06/26 04:25:09;;;;;;;1.80;0.70;;;19.40;99.90;;;;;;5018620;28;20071;-48
2022/06/26 04:27:35;;;;;;;2.50;0.68;;;19.40;99.90;;;;;;5015477;28;20038;-46
2022/06/26 04:30:00;;;;;;;2.30;0.80;;;19.30;99.90;;;;;;5011570;28;20046;-48
2022/06/26 04:32:26;;;;;;;0.95;0.50;;;19.40;99.90;;;;;;5021324;28;20045;-45
2022/06/26 04:34:52;;;;;;;1.45;0.50;;;19.40;99.90;;;;;;5017336;28;20299;-47
2022/06/26 04:37:18;;;;;;;1.92;0.60;;;19.40;99.90;;;;;;5018741;28;20124;-48
2022/06/26 04:39:44;;;;;;;2.85;0.88;;;19.40;99.90;;;;;;5023262;28;20033;-45
2022/06/26 04:42:09;;;;;;;2.13;0.70;;;19.40;99.90;;;;;;5014740;28;20554;-47
2022/06/26 04:44:35;;;;;;;2.15;0.82;;;19.40;99.90;;;;;;5023502;28;20045;-45
2022/06/26 04:47:01;;;;;;;1.58;0.52;;;19.50;99.90;;;;;;5018637;28;20050;-46
2022/06/26 04:49:26;;;;;;;1.92;0.52;;;19.50;99.90;;;;;;5022627;28;20482;-46
2022/06/26 04:51:52;;;;;;;2.15;0.60;;;19.50;99.90;;;;;;5006272;28;20491;-47
2022/06/26 04:54:17;;;;;;;1.20;0.45;;;19.50;99.90;;;;;;5021682;28;20459;-47
2022/06/26 04:56:43;;;;;;;2.20;0.40;;;19.50;99.90;;;;;;5019270;28;20468;-46
2022/06/26 04:59:09;;;;;;;1.20;0.50;;;19.50;99.90;;;;;;5023719;28;20041;-45
2022/06/26 05:01:35;;;;;;;1.65;0.40;;;19.60;99.90;;;;;;5030852;28;20139;-48
2022/06/26 05:04:01;;;;;;;2.10;0.45;;;19.60;99.90;;;;;;5023168;28;20236;-48
2022/06/26 05:06:27;;;;;;;1.40;0.40;;;19.50;99.90;;;;;;5014729;28;20041;-48
2022/06/26 05:08:52;;;;;;;1.65;0.30;;;19.50;99.90;;;;;;5031953;28;20037;-46
2022/06/26 05:11:19;;;;;;;1.20;0.50;;;19.60;99.90;;;;;;5011584;28;20558;-45
2022/06/26 05:13:46;;;;;;;1.38;0.30;;;19.60;99.90;;;;;;5017436;28;20034;-46
2022/06/26 05:16:11;;;;;;;1.20;0.40;;;19.50;99.90;;;;;;5029725;28;20117;-46
2022/06/26 05:18:37;;;;;;;1.38;0.47;;;19.50;99.90;;;;;;5039640;28;20165;-47
2022/06/26 05:21:03;;;;;;;1.00;0.30;;;19.50;99.90;;;;;;5029539;28;20068;-46
2022/06/26 05:23:29;;;;;;;1.95;0.30;;;19.50;99.90;;;;;;5024917;28;20049;-49
2022/06/26 05:25:55;;;;;;;1.65;0.30;;;19.60;99.90;;;;;;5023544;28;20049;-48
2022/06/26 05:28:21;;;;;;;1.20;0.35;;;19.50;99.90;;;;;;5019371;28;20112;-46
2022/06/26 05:30:47;;;;;;;1.75;0.30;;;19.50;99.90;;;;;;5017635;28;20045;-47
2022/06/26 05:33:12;;;;;;;1.80;0.35;;;19.60;99.90;;;;;;5027218;28;20056;-46
2022/06/26 05:35:38;;;;;;;1.02;0.30;;;19.50;99.90;;;;;;5022672;28;20438;-47
2022/06/26 05:38:04;;;;;;;1.60;0.30;;;19.50;99.90;;;;;;5026214;28;20376;-47
2022/06/26 05:40:29;;;;;;;1.60;0.43;;;19.60;99.90;;;;;;5027270;28;20041;-45
2022/06/26 05:42:56;;;;;;;1.88;0.40;;;19.60;99.90;;;;;;5013768;28;20056;-45
2022/06/26 05:45:22;;;;;;;1.10;0.30;;;19.60;99.90;;;;;;5022876;28;20065;-48
2022/06/26 05:47:48;;;;;;;1.20;0.30;;;19.60;99.90;;;;;;5043035;28;20053;-46
2022/06/26 05:50:14;;;;;;;1.83;0.30;;;19.60;99.90;;;;;;5013736;28;20457;-47
2022/06/26 05:52:39;;;;;;;1.17;0.30;;;19.70;99.90;;;;;;5029576;28;20125;-47
2022/06/26 05:55:07;;;;;;;1.33;0.30;;;19.70;99.90;;;;;;5030501;28;20100;-47
2022/06/26 05:57:33;;;;;;;2.47;0.30;;;19.80;99.90;;;;;;5027737;28;20037;-45
2022/06/26 05:59:59;;;;;;;1.85;0.35;;;19.80;99.90;;;;;;5020512;28;20508;-46
2022/06/26 06:02:25;;;;;;;0.98;0.40;;;19.80;99.90;;;;;;5034607;28;20104;-46
2022/06/26 06:04:51;;;;;;;1.40;0.40;;;19.90;99.90;;;;;;5019214;28;20033;-46
2022/06/26 06:07:17;;;;;;;1.58;0.40;;;19.90;99.90;;;;;;5006176;28;20557;-45
2022/06/26 06:09:42;;;;;;;1.10;0.40;;;19.90;99.90;;;;;;5022411;28;20042;-46
2022/06/26 06:12:08;;;;;;;1.20;0.30;;;19.90;99.90;;;;;;5026195;28;20089;-46
2022/06/26 06:14:34;;;;;;;0.95;0.35;;;20.00;99.90;;;;;;5019699;28;20464;-46
2022/06/26 06:17:35;;;;;;;1.13;0.30;;;20.00;99.90;;;;;;5025375;28;20494;-46
2022/06/26 06:19:46;;;;;;;1.88;0.50;;;20.00;99.90;;;;;;5019985;28;20085;-47
2022/06/26 06:22:11;;;;;;;1.70;0.40;;;20.10;99.90;;;;;;4985989;28;20076;-46
2022/06/26 06:24:37;;;;;;;2.55;0.43;;;20.10;99.90;;;;;;5009159;28;20043;-46
2022/06/26 06:27:03;;;;;;;1.08;0.40;;;20.10;99.90;;;;;;5017955;28;20048;-45
2022/06/26 06:29:28;;;;;;;0.95;0.40;;;20.20;99.90;;;;;;5005241;28;20033;-47
2022/06/26 06:31:54;;;;;;;0.95;0.30;;;20.20;99.90;;;;;;5022577;28;20401;-49
2022/06/26 06:34:20;;;;;;;1.23;0.40;;;20.30;99.90;;;;;;5029011;28;20041;-46
2022/06/26 06:36:46;;;;;;;1.33;0.40;;;20.30;99.90;;;;;;5026221;28;20069;-46
2022/06/26 06:39:11;;;;;;;1.25;0.40;;;20.30;99.90;;;;;;5016885;28;20064;-45
2022/06/26 06:41:37;;;;;;;1.95;0.47;;;20.30;99.90;;;;;;5023912;28;20480;-45
2022/06/26 06:44:03;;;;;;;1.08;0.45;;;20.30;99.90;;;;;;5000496;28;20132;-49
2022/06/26 06:46:32;;;;;;;0.80;0.50;;;20.40;99.90;;;;;;5020625;28;20042;-46
2022/06/26 06:48:57;;;;;;;1.13;0.50;;;20.40;99.90;;;;;;5024515;28;20133;-44
2022/06/26 06:51:23;;;;;;;2.60;0.80;;;20.50;99.90;;;;;;5013442;28;20063;-45
2022/06/26 06:53:49;;;;;;;2.08;1.20;;;20.50;99.90;;;;;;5028483;28;20048;-47
2022/06/26 06:56:15;;;;;;;1.75;1.20;;;20.60;99.90;;;;;;5026545;28;20040;-49
2022/06/26 06:58:40;;;;;;;2.95;1.67;;;20.60;99.90;;;;;;5022383;28;20037;-45
2022/06/26 07:01:06;;;;;;;2.53;1.27;;;20.70;99.90;;;;;;5026000;28;20064;-46
2022/06/26 07:03:32;;;;;;;2.25;1.10;;;20.80;99.90;;;;;;5009278;28;20077;-45
2022/06/26 07:05:57;;;;;;;2.08;1.38;;;20.80;99.90;;;;;;5024940;28;20042;-46
2022/06/26 07:08:23;;;;;;;1.90;0.82;;;20.90;99.90;;;;;;5016556;28;20135;-46
2022/06/26 07:10:49;;;;;;;1.30;0.85;;;20.90;99.90;;;;;;5020251;28;20041;-45
2022/06/26 07:13:14;;;;;;;2.58;1.85;;;21.00;99.90;;;;;;5017438;28;20114;-46
2022/06/26 07:15:40;;;;;;;3.55;1.63;;;21.00;99.90;;;;;;5005157;28;20041;-47
2022/06/26 07:18:06;;;;;;;2.67;2.42;;;21.00;99.90;;;;;;5018612;28;20037;-45
2022/06/26 07:20:31;;;;;;;2.38;2.17;;;21.00;99.90;;;;;;5031737;28;20053;-45
2022/06/26 07:22:58;;;;;;;2.42;1.90;;;21.10;99.90;;;;;;5017552;28;20346;-46
2022/06/26 07:25:24;;;;;;;3.08;2.33;;;21.10;99.90;;;;;;5000870;28;20127;-45
2022/06/26 07:27:50;;;;;;;3.65;3.00;;;21.10;99.90;;;;;;5017048;28;20077;-45
2022/06/26 07:30:16;;;;;;;3.65;2.53;;;21.20;99.90;;;;;;5018220;28;20041;-47
2022/06/26 07:32:42;;;;;;;3.72;3.40;;;21.20;99.90;;;;;;5022713;28;20128;-45
2022/06/26 07:35:08;;;;;;;5.03;4.05;;;21.20;99.90;;;;;;5017615;28;20034;-46
2022/06/26 07:37:33;;;;;;;5.22;4.60;;;21.30;99.90;;;;;;5012442;28;20437;-45
2022/06/26 07:39:59;;;;;;;5.50;4.43;;;21.30;99.90;;;;;;5021752;28;20141;-45
2022/06/26 07:42:25;;;;;;;5.53;4.38;;;21.30;99.90;;;;;;5020674;28;20050;-46
2022/06/26 07:44:51;;;;;;;4.70;4.38;;;21.30;99.90;;;;;;5029068;28;20047;-45
2022/06/26 07:47:17;;;;;;;3.78;3.42;;;21.40;99.90;;;;;;5030370;28;20053;-46
2022/06/26 07:49:42;;;;;;;4.13;3.80;;;21.50;99.90;;;;;;5002235;28;20069;-44
2022/06/26 07:52:08;;;;;;;5.25;3.20;;;21.50;99.90;;;;;;5011440;28;20045;-47
2022/06/26 07:54:34;;;;;;;3.70;2.90;;;21.50;99.90;;;;;;5016724;28;20029;-46
2022/06/26 07:56:59;;;;;;;3.67;3.20;;;21.50;99.90;;;;;;5014536;28;20029;-46
2022/06/26 07:59:26;;;;;;;3.55;3.25;;;21.60;99.90;;;;;;5015297;28;20464;-46
2022/06/26 08:01:52;;;;;;;6.10;5.10;;;21.60;99.90;;;;;;5020554;28;20120;-46
2022/06/26 08:04:17;;;;;;;4.82;4.43;;;21.60;99.90;;;;;;5025724;28;20120;-47
2022/06/26 08:06:43;;;;;;;4.57;4.05;;;21.60;99.90;;;;;;5027202;28;20043;-45
2022/06/26 08:09:09;;;;;;;4.68;4.28;;;21.60;99.90;;;;;;5021635;28;20048;-46
2022/06/26 08:11:34;;;;;;;4.93;4.53;;;21.60;99.90;;;;;;5027232;28;20073;-46
2022/06/26 08:14:00;;;;;;;6.72;5.10;;;21.70;99.90;;;;;;5024761;28;20047;-45
2022/06/26 08:16:26;;;;;;;5.60;5.10;;;21.80;99.90;;;;;;5029575;28;20051;-49
2022/06/26 08:18:52;;;;;;;5.88;5.32;;;21.80;99.90;;;;;;5018477;28;20395;-45
2022/06/26 08:24:02;;;;;;;5.68;5.18;;;21.90;99.90;;;;;;5010014;28;20061;-45
2022/06/26 08:26:28;;;;;;;6.88;6.38;;;21.90;99.90;;;;;;5023413;28;20045;-46
2022/06/26 08:28:53;;;;;;;5.13;4.78;;;21.90;99.90;;;;;;5011976;28;20046;-49
2022/06/26 08:31:19;;;;;;;6.20;5.60;;;22.00;99.90;;;;;;5029267;28;20030;-46
2022/06/26 08:33:45;;;;;;;6.78;5.70;;;22.00;99.90;;;;;;5007325;28;20076;-46
2022/06/26 08:36:10;;;;;;;6.60;5.93;;;22.00;99.90;;;;;;5022103;28;20471;-46
2022/06/26 08:38:36;;;;;;;6.28;5.78;;;22.10;99.90;;;;;;5028397;28;20047;-45
2022/06/26 08:41:03;;;;;;;6.93;6.15;;;22.10;99.90;;;;;;5016993;28;20057;-48
2022/06/26 08:43:29;;;;;;;6.80;6.15;;;22.20;99.90;;;;;;5007387;28;20391;-48
2022/06/26 08:45:54;;;;;;;5.78;4.75;;;22.20;99.90;;;;;;5025821;28;20034;-46
2022/06/26 08:48:24;;;;;;;5.05;4.55;;;22.30;99.90;;;;;;5023838;28;20156;-46
2022/06/26 08:50:49;;;;;;;6.15;5.35;;;22.30;99.90;;;;;;5020041;28;20056;-48
2022/06/26 08:53:16;;;;;;;7.18;6.05;;;22.40;99.90;;;;;;5021941;28;20045;-48
2022/06/26 08:55:42;;;;;;;4.55;4.13;;;22.40;99.90;;;;;;5008285;28;20042;-46
2022/06/26 08:58:08;;;;;;;4.50;4.10;;;22.50;99.90;;;;;;5030357;28;20541;-46
2022/06/26 09:00:34;;;;;;;4.47;3.75;;;22.60;99.90;;;;;;5039543;28;20171;-47
2022/06/26 09:03:00;;;;;;;3.80;3.40;;;22.70;99.90;;;;;;5036728;28;20128;-47
2022/06/26 09:05:25;;;;;;;3.80;3.50;;;22.80;99.90;;;;;;5034551;28;20049;-47
2022/06/26 09:07:53;;;;;;;5.63;4.63;;;22.80;99.90;;;;;;5012841;28;20543;-46
2022/06/26 09:10:20;;;;;;;5.80;4.70;;;22.90;99.90;;;;;;5023121;28;20054;-48
2022/06/26 09:12:57;;;;;;;6.32;5.72;;;23.00;99.90;;;;;;5020106;28;20046;-45
2022/06/26 09:15:24;;;;;;;6.85;6.25;;;23.00;99.90;;;;;;5020158;28;20045;-47
2022/06/26 09:18:10;;;;;;;6.97;5.32;;;23.10;99.90;;;;;;5016635;28;20046;-45
2022/06/26 09:20:48;;;;;;;5.05;4.65;;;23.10;99.90;;;;;;5016787;28;20161;-44
2022/06/26 09:23:15;;;;;;;7.57;4.15;;;23.20;99.90;;;;;;5022006;28;20072;-47
2022/06/26 09:25:45;;;;;;;5.60;5.10;;;23.30;99.90;;;;;;5023869;28;20120;-47
2022/06/26 09:28:13;;;;;;;6.45;4.88;;;23.30;99.90;;;;;;5016163;28;20034;-49
2022/06/26 09:30:52;;;;;;;4.70;4.30;;;23.40;99.90;;;;;;5017301;28;20500;-47
2022/06/26 09:33:20;;;;;;;7.47;5.20;;;23.40;99.90;;;;;;5003474;28;20057;-46
2022/06/26 09:35:46;;;;;;;4.70;4.20;;;23.50;99.90;;;;;;5020496;28;20049;-45
2022/06/26 09:38:23;;;;;;;4.45;4.05;;;23.50;99.90;;;;;;5002631;28;20041;-45
2022/06/26 09:41:03;;;;;;;5.18;4.35;;;23.50;99.90;;;;;;5005563;28;20041;-47
2022/06/26 09:43:34;;;;;;;4.80;4.30;;;23.60;99.90;;;;;;5030613;28;20047;-45
2022/06/26 09:46:06;;;;;;;4.78;4.13;;;23.60;99.90;;;;;;5026154;28;20054;-47
2022/06/26 09:48:33;;;;;;;5.95;4.28;;;23.60;99.90;;;;;;5023822;28;20062;-47
2022/06/26 09:50:59;;;;;;;5.00;4.55;;;23.60;99.90;;;;;;5003973;28;20050;-44
2022/06/26 09:53:26;;;;;;;4.50;4.10;;;23.60;99.90;;;;;;5019374;28;20044;-45
2022/06/26 09:55:54;;;;;;;4.43;3.90;;;23.60;99.90;;;;;;5028410;28;20050;-46
2022/06/26 09:58:20;;;;;;;4.20;3.78;;;23.70;99.90;;;;;;5022288;28;20043;-47
2022/06/26 10:06:25;;;;;;;7.07;3.17;;;23.60;99.90;;;;;;5031194;28;20555;-47
2022/06/26 10:06:25;;;;;;;3.25;1.88;;;23.70;99.90;;;;;;5028423;28;20551;-48
2022/06/26 10:08:59;;;;;;;3.88;1.98;;;23.70;99.90;;;;;;5016541;28;20157;-49
2022/06/26 10:11:27;;;;;;;3.08;1.50;;;23.70;99.90;;;;;;5021427;28;20451;-45
2022/06/26 10:14:11;;;;;;;4.45;1.67;;;23.80;99.90;;;;;;5027671;28;20037;-49
2022/06/26 10:17:01;;;;;;;2.50;1.73;;;23.80;99.90;;;;;;5025973;28;20045;-46
2022/06/26 10:19:45;;;;;;;2.58;1.60;;;23.90;99.90;;;;;;5026298;28;20038;-48
2022/06/26 10:22:12;;;;;;;4.47;1.98;;;24.00;99.90;;;;;;5028149;28;20080;-45
2022/06/26 10:24:55;;;;;;;3.03;1.70;;;24.00;99.90;;;;;;5025086;28;20042;-45
2022/06/26 10:27:26;;;;;;;8.52;1.95;;;24.10;99.90;;;;;;5009385;28;20543;-49
2022/06/26 10:30:07;;;;;;;4.18;2.78;;;24.10;99.90;;;;;;5020545;28;20109;-48
2022/06/26 10:32:33;;;;;;;9.25;5.20;;;24.00;99.90;;;;;;5008336;28;20108;-47
2022/06/26 10:34:59;;;;;;;8.07;4.65;;;23.90;99.90;;;;;;5027814;28;20045;-48
2022/06/26 10:37:25;;;;;;;10.45;5.47;;;23.80;99.90;;;;;;5023420;28;20044;-49
2022/06/26 10:39:55;;;;;;;3.92;2.17;;;23.80;99.90;;;;;;5032765;28;20033;-48
2022/06/26 10:45:19;;;;;;;24.08;9.98;;;23.90;99.90;;;;;;5022492;28;20052;-47
2022/06/26 10:47:53;;;;;;;28.05;13.32;;;23.90;99.90;;;;;;5004081;28;20056;-47
2022/06/26 10:50:33;;;;;;;9.40;3.90;;;23.90;99.90;;;;;;5031097;28;20157;-46
2022/06/26 10:53:16;;;;;;;8.60;4.28;;;23.90;99.90;;;;;;5019303;28;20395;-50
2022/06/26 10:55:51;;;;;;;8.95;4.45;;;23.90;99.90;;;;;;5026933;28;20028;-51
2022/06/26 10:58:29;;;;;;;27.08;12.38;;;23.80;99.90;;;;;;5031207;28;20042;-46
2022/06/26 11:01:01;;;;;;;8.27;3.80;;;23.90;99.90;;;;;;5025470;28;20566;-48
2022/06/26 11:03:29;;;;;;;4.78;1.77;;;23.90;99.90;;;;;;5027902;28;20112;-47
2022/06/26 11:05:58;;;;;;;4.18;1.45;;;23.90;99.90;;;;;;5026408;28;20049;-44
2022/06/26 11:08:33;;;;;;;4.45;1.60;;;23.90;99.90;;;;;;5032102;28;20041;-46
2022/06/26 11:11:09;;;;;;;44.67;6.00;;;24.00;99.90;;;;;;5032194;28;20547;-49
2022/06/26 11:13:46;;;;;;;18.50;3.45;;;24.00;99.90;;;;;;5030419;28;20045;-47
2022/06/26 11:16:12;;;;;;;9.57;2.13;;;24.00;99.90;;;;;;5026420;28;20506;-49
2022/06/26 11:18:37;;;;;;;6.38;1.67;;;23.90;99.90;;;;;;5023824;28;20347;-47
2022/06/26 11:21:04;;;;;;;15.27;1.95;;;23.90;99.90;;;;;;5028185;28;20116;-46
2022/06/26 11:23:33;;;;;;;4.85;1.58;;;24.00;99.90;;;;;;5046768;28;20136;-47
2022/06/26 11:26:01;;;;;;;3.58;1.75;;;24.00;99.90;;;;;;5026613;28;20514;-47
2022/06/26 11:28:32;;;;;;;3.42;1.42;;;24.00;99.90;;;;;;5013162;28;20159;-47
2022/06/26 11:30:59;;;;;;;4.22;1.20;;;24.00;99.90;;;;;;5029343;28;20522;-46
2022/06/26 11:33:30;;;;;;;2.83;1.08;;;24.00;99.90;;;;;;5029853;28;20045;-47
2022/06/26 11:36:01;;;;;;;1.88;0.90;;;24.10;99.90;;;;;;5025537;28;20091;-46
2022/06/26 11:38:27;;;;;;;2.65;1.10;;;24.10;99.90;;;;;;5022310;28;20044;-50
2022/06/26 11:40:58;;;;;;;1.92;0.70;;;24.10;99.90;;;;;;5025432;28;20041;-48
2022/06/26 11:43:23;;;;;;;2.53;0.70;;;24.10;99.90;;;;;;5019323;28;20097;-48
2022/06/26 11:45:49;;;;;;;2.60;0.90;;;24.10;99.90;;;;;;5035514;28;20037;-47
2022/06/26 11:48:17;;;;;;;2.35;0.90;;;24.20;99.90;;;;;;5024990;28;20543;-46
2022/06/26 11:50:45;;;;;;;2.75;0.85;;;24.20;99.90;;;;;;5024915;28;20037;-48
2022/06/26 11:53:18;;;;;;;2.25;0.63;;;24.30;99.90;;;;;;5022190;28;20531;-47
2022/06/26 11:55:45;;;;;;;;;;;24.30;99.90;;;;;;5006165;28;20083;-49
2022/06/26 11:58:11;;;;;;;3.20;0.90;;;24.20;99.90;;;;;;5027040;28;20383;-50
2022/06/26 12:00:37;;;;;;;2.97;1.00;;;24.20;99.90;;;;;;5027044;28;20430;-49
2022/06/26 12:03:03;;;;;;;3.42;1.08;;;24.20;99.90;;;;;;5018052;28;20088;-49
2022/06/26 12:05:30;;;;;;;3.78;1.10;;;24.30;99.90;;;;;;5024355;28;20061;-47
2022/06/26 12:07:56;;;;;;;4.90;1.02;;;24.30;99.90;;;;;;5015250;28;20046;-49
2022/06/26 12:10:36;;;;;;;7.35;1.10;;;24.30;99.90;;;;;;5031298;28;20045;-50
2022/06/26 12:13:02;;;;;;;4.10;1.00;;;24.30;99.90;;;;;;5031127;28;20069;-49
2022/06/26 12:15:34;;;;;;;7.72;1.25;;;24.40;99.90;;;;;;5001418;28;20057;-46
2022/06/26 12:18:02;;;;;;;3.60;1.02;;;24.50;99.90;;;;;;5031156;28;20089;-48
2022/06/26 12:20:35;;;;;;;4.30;1.15;;;24.50;99.90;;;;;;5018974;28;20053;-49
2022/06/26 12:23:00;;;;;;;3.28;1.00;;;24.50;99.90;;;;;;5023156;28;20041;-47
2022/06/26 12:25:28;;;;;;;6.18;0.90;;;24.50;99.90;;;;;;5028851;28;20546;-46
2022/06/26 12:27:54;;;;;;;2.63;0.85;;;24.50;99.90;;;;;;5016364;28;20053;-48
2022/06/26 12:30:22;;;;;;;3.40;1.00;;;24.50;99.90;;;;;;5028297;28;20041;-47
2022/06/26 12:32:49;;;;;;;4.07;1.20;;;24.50;99.90;;;;;;5019772;28;20042;-47
2022/06/26 12:35:15;;;;;;;5.22;1.20;;;24.40;99.90;;;;;;5021767;28;20198;-47
2022/06/26 12:37:41;;;;;;;2.85;0.80;;;24.40;99.90;;;;;;5018549;28;20046;-49
2022/06/26 12:40:08;;;;;;;2.17;0.60;;;24.40;99.90;;;;;;5025414;28;20400;-45
2022/06/26 12:42:34;;;;;;;2.65;1.00;;;24.40;99.90;;;;;;5025822;28;20112;-47
2022/06/26 12:44:59;;;;;;;3.25;0.93;;;24.30;99.90;;;;;;5025245;28;20128;-47
2022/06/26 12:47:25;;;;;;;4.90;1.00;;;24.30;99.90;;;;;;5001234;28;20534;-47
2022/06/26 12:49:51;;;;;;;2.38;0.82;;;24.30;99.90;;;;;;5027305;28;20048;-49
2022/06/26 12:52:17;;;;;;;4.97;1.08;;;24.20;99.90;;;;;;5019742;28;20080;-48
2022/06/26 12:54:42;;;;;;;5.88;1.00;;;24.30;99.90;;;;;;5019531;28;20120;-44
2022/06/26 12:57:08;;;;;;;8.20;1.08;;;24.30;99.90;;;;;;5023754;28;20038;-47